sensor_id;sensor_type;location;lat;lon;timestamp;pressure;altitude;pressure_sealevel;temperature;humidity
3598;BME280;1813;52.016;8.714;2023-02-21T00:02:18;-16261.94;;;-139.71;91.74
3598;BME280;1813;52.016;8.714;2023-02-21T00:05:04;-16261.94;;;-139.71;91.63
3598;BME280;1813;52.016;8.714;2023-02-21T00:07:51;-16261.94;;;-139.71;91.78
3598;BME280;1813;52.016;8.714;2023-02-21T00:10:37;-16261.94;;;-139.71;91.70
3598;BME280;1813;52.016;8.714;2023-02-21T00:13:26;-16261.94;;;-139.71;91.74
3598;BME280;1813;52.016;8.714;2023-02-21T00:16:14;-16261.94;;;-139.71;92.00
3598;BME280;1813;52.016;8.714;2023-02-21T00:19:01;-16261.94;;;-139.71;91.84
3598;BME280;1813;52.016;8.714;2023-02-21T00:21:48;-16261.94;;;-139.71;91.84
3598;BME280;1813;52.016;8.714;2023-02-21T00:24:36;-16261.94;;;-139.71;91.87
3598;BME280;1813;52.016;8.714;2023-02-21T00:27:23;-16261.94;;;-139.71;91.82
3598;BME280;1813;52.016;8.714;2023-02-21T00:30:14;-16261.94;;;-139.71;91.87
3598;BME280;1813;52.016;8.714;2023-02-21T00:33:02;-16261.94;;;-139.71;91.98
3598;BME280;1813;52.016;8.714;2023-02-21T00:35:49;-16261.94;;;-139.71;92.10
3598;BME280;1813;52.016;8.714;2023-02-21T00:38:36;-16261.94;;;-139.71;91.98
3598;BME280;1813;52.016;8.714;2023-02-21T00:41:22;-16261.94;;;-139.71;92.01
3598;BME280;1813;52.016;8.714;2023-02-21T00:44:08;-16261.94;;;-139.71;92.01
3598;BME280;1813;52.016;8.714;2023-02-21T00:46:57;-16261.94;;;-139.71;91.87
3598;BME280;1813;52.016;8.714;2023-02-21T00:49:43;-16261.94;;;-139.71;92.18
3598;BME280;1813;52.016;8.714;2023-02-21T00:52:29;-16261.94;;;-139.71;92.15
3598;BME280;1813;52.016;8.714;2023-02-21T00:55:16;-16261.94;;;-139.71;92.02
3598;BME280;1813;52.016;8.714;2023-02-21T00:58:02;-16261.94;;;-139.71;92.12
3598;BME280;1813;52.016;8.714;2023-02-21T01:00:48;-16261.94;;;-139.71;92.11
3598;BME280;1813;52.016;8.714;2023-02-21T01:03:36;-16261.94;;;-139.71;92.03
3598;BME280;1813;52.016;8.714;2023-02-21T01:06:23;-16261.94;;;-139.71;92.21
3598;BME280;1813;52.016;8.714;2023-02-21T01:09:10;-16261.94;;;-139.71;92.11
3598;BME280;1813;52.016;8.714;2023-02-21T01:11:56;-16261.94;;;-139.71;92.31
3598;BME280;1813;52.016;8.714;2023-02-21T01:14:43;-16261.94;;;-139.71;92.18
3598;BME280;1813;52.016;8.714;2023-02-21T01:17:30;-16261.94;;;-139.71;92.03
3598;BME280;1813;52.016;8.714;2023-02-21T01:20:19;-16261.94;;;-139.71;92.13
3598;BME280;1813;52.016;8.714;2023-02-21T01:23:05;-16261.94;;;-139.71;92.11
3598;BME280;1813;52.016;8.714;2023-02-21T01:25:51;-16261.94;;;-139.71;92.14
3598;BME280;1813;52.016;8.714;2023-02-21T01:28:37;-16261.94;;;-139.71;92.08
3598;BME280;1813;52.016;8.714;2023-02-21T01:31:24;-16261.94;;;-139.71;92.04
3598;BME280;1813;52.016;8.714;2023-02-21T01:34:10;-16261.94;;;-139.71;91.93
3598;BME280;1813;52.016;8.714;2023-02-21T01:36:59;-16261.94;;;-139.71;91.83
3598;BME280;1813;52.016;8.714;2023-02-21T01:39:47;-16261.94;;;-139.71;91.74
3598;BME280;1813;52.016;8.714;2023-02-21T01:42:35;-16261.94;;;-139.71;91.95
3598;BME280;1813;52.016;8.714;2023-02-21T01:45:48;-16261.94;;;-139.71;91.98
3598;BME280;1813;52.016;8.714;2023-02-21T01:48:35;-16261.94;;;-139.71;91.72
3598;BME280;1813;52.016;8.714;2023-02-21T01:51:26;-16261.94;;;-139.71;91.63
3598;BME280;1813;52.016;8.714;2023-02-21T01:54:16;-16261.94;;;-139.71;91.60
3598;BME280;1813;52.016;8.714;2023-02-21T01:57:04;-16261.94;;;-139.71;91.74
3598;BME280;1813;52.016;8.714;2023-02-21T01:59:55;-16261.94;;;-139.71;91.81
3598;BME280;1813;52.016;8.714;2023-02-21T02:02:49;-16261.94;;;-139.71;91.85
3598;BME280;1813;52.016;8.714;2023-02-21T02:05:37;-16261.94;;;-139.71;91.92
3598;BME280;1813;52.016;8.714;2023-02-21T02:08:28;-16261.94;;;-139.71;92.13
3598;BME280;1813;52.016;8.714;2023-02-21T02:11:31;-16261.94;;;-139.71;91.95
3598;BME280;1813;52.016;8.714;2023-02-21T02:14:50;-16261.94;;;-139.71;91.91
3598;BME280;1813;52.016;8.714;2023-02-21T02:17:35;-16261.94;;;-139.71;91.89
3598;BME280;1813;52.016;8.714;2023-02-21T02:20:47;-16261.94;;;-139.71;91.82
3598;BME280;1813;52.016;8.714;2023-02-21T02:23:55;-16261.94;;;-139.71;91.91
3598;BME280;1813;52.016;8.714;2023-02-21T02:33:12;-16261.94;;;-139.71;91.81
3598;BME280;1813;52.016;8.714;2023-02-21T02:35:58;-16261.94;;;-139.71;91.91
3598;BME280;1813;52.016;8.714;2023-02-21T02:38:37;-16261.94;;;-139.71;91.80
3598;BME280;1813;52.016;8.714;2023-02-21T02:41:23;-16261.94;;;-139.71;91.99
3598;BME280;1813;52.016;8.714;2023-02-21T02:44:05;-16261.94;;;-139.71;91.79
3598;BME280;1813;52.016;8.714;2023-02-21T02:46:46;-16261.94;;;-139.71;91.83
3598;BME280;1813;52.016;8.714;2023-02-21T02:49:25;-16261.94;;;-139.71;92.12
3598;BME280;1813;52.016;8.714;2023-02-21T02:52:18;-16261.94;;;-139.71;91.82
3598;BME280;1813;52.016;8.714;2023-02-21T02:54:59;-16261.94;;;-139.71;91.82
3598;BME280;1813;52.016;8.714;2023-02-21T02:57:34;-16261.94;;;-139.71;91.92
3598;BME280;1813;52.016;8.714;2023-02-21T03:00:13;-16261.94;;;-139.71;92.03
3598;BME280;1813;52.016;8.714;2023-02-21T03:03:02;-16261.94;;;-139.71;91.72
3598;BME280;1813;52.016;8.714;2023-02-21T03:05:52;-16261.94;;;-139.71;91.88
3598;BME280;1813;52.016;8.714;2023-02-21T03:08:39;-16261.94;;;-139.71;91.95
3598;BME280;1813;52.016;8.714;2023-02-21T03:11:18;-16261.94;;;-139.71;91.96
3598;BME280;1813;52.016;8.714;2023-02-21T03:13:55;-16261.94;;;-139.71;92.01
3598;BME280;1813;52.016;8.714;2023-02-21T03:16:35;-16261.94;;;-139.71;91.85
3598;BME280;1813;52.016;8.714;2023-02-21T03:19:13;-16261.94;;;-139.71;91.94
3598;BME280;1813;52.016;8.714;2023-02-21T03:21:51;-16261.94;;;-139.71;92.05
3598;BME280;1813;52.016;8.714;2023-02-21T03:24:40;-16261.94;;;-139.71;91.95
3598;BME280;1813;52.016;8.714;2023-02-21T03:27:16;-16261.94;;;-139.71;91.91
3598;BME280;1813;52.016;8.714;2023-02-21T03:30:19;-16261.94;;;-139.71;92.02
3598;BME280;1813;52.016;8.714;2023-02-21T03:32:55;-16261.94;;;-139.71;91.95
3598;BME280;1813;52.016;8.714;2023-02-21T03:35:29;-16261.94;;;-139.71;92.11
3598;BME280;1813;52.016;8.714;2023-02-21T03:38:04;-16261.94;;;-139.71;91.98
3598;BME280;1813;52.016;8.714;2023-02-21T03:40:43;-16261.94;;;-139.71;91.85
3598;BME280;1813;52.016;8.714;2023-02-21T03:43:17;-16261.94;;;-139.71;92.03
3598;BME280;1813;52.016;8.714;2023-02-21T03:45:55;-16261.94;;;-139.71;92.08
3598;BME280;1813;52.016;8.714;2023-02-21T03:48:32;-16261.94;;;-139.71;91.98
3598;BME280;1813;52.016;8.714;2023-02-21T03:51:15;-16261.94;;;-139.71;92.21
3598;BME280;1813;52.016;8.714;2023-02-21T03:53:51;-16261.94;;;-139.71;92.15
3598;BME280;1813;52.016;8.714;2023-02-21T03:56:34;-16261.94;;;-139.71;92.35
3598;BME280;1813;52.016;8.714;2023-02-21T03:59:24;-16261.94;;;-139.71;92.28
3598;BME280;1813;52.016;8.714;2023-02-21T04:01:59;-16261.94;;;-139.71;92.20
3598;BME280;1813;52.016;8.714;2023-02-21T04:04:35;-16261.94;;;-139.71;92.20
3598;BME280;1813;52.016;8.714;2023-02-21T04:07:17;-16261.94;;;-139.71;92.32
3598;BME280;1813;52.016;8.714;2023-02-21T04:09:51;-16261.94;;;-139.71;92.43
3598;BME280;1813;52.016;8.714;2023-02-21T04:12:38;-16261.94;;;-139.71;92.26
3598;BME280;1813;52.016;8.714;2023-02-21T04:15:11;-16261.94;;;-139.71;92.41
3598;BME280;1813;52.016;8.714;2023-02-21T04:17:46;-16261.94;;;-139.71;92.61
3598;BME280;1813;52.016;8.714;2023-02-21T04:20:19;-16261.94;;;-139.71;92.53
3598;BME280;1813;52.016;8.714;2023-02-21T04:22:57;-16261.94;;;-139.71;92.76
3598;BME280;1813;52.016;8.714;2023-02-21T04:25:31;-16261.94;;;-139.71;92.58
3598;BME280;1813;52.016;8.714;2023-02-21T04:28:13;-16261.94;;;-139.71;92.59
3598;BME280;1813;52.016;8.714;2023-02-21T04:30:47;-16261.94;;;-139.71;92.73
3598;BME280;1813;52.016;8.714;2023-02-21T04:33:21;-16261.94;;;-139.71;92.51
3598;BME280;1813;52.016;8.714;2023-02-21T04:35:55;-16261.94;;;-139.71;92.59
3598;BME280;1813;52.016;8.714;2023-02-21T04:38:37;-16261.94;;;-139.71;92.54
3598;BME280;1813;52.016;8.714;2023-02-21T04:41:15;-16261.94;;;-139.71;92.75
3598;BME280;1813;52.016;8.714;2023-02-21T04:43:51;-16261.94;;;-139.71;92.61
3598;BME280;1813;52.016;8.714;2023-02-21T04:46:27;-16261.94;;;-139.71;92.75
3598;BME280;1813;52.016;8.714;2023-02-21T04:49:01;-16261.94;;;-139.71;92.75
3598;BME280;1813;52.016;8.714;2023-02-21T04:51:35;-16261.94;;;-139.71;92.58
3598;BME280;1813;52.016;8.714;2023-02-21T04:54:09;-16261.94;;;-139.71;92.68
3598;BME280;1813;52.016;8.714;2023-02-21T04:56:43;-16261.94;;;-139.71;92.85
3598;BME280;1813;52.016;8.714;2023-02-21T04:59:20;-16261.94;;;-139.71;93.08
3598;BME280;1813;52.016;8.714;2023-02-21T05:01:54;-16261.94;;;-139.71;93.16
3598;BME280;1813;52.016;8.714;2023-02-21T05:04:29;-16261.94;;;-139.71;93.14
3598;BME280;1813;52.016;8.714;2023-02-21T05:07:04;-16261.94;;;-139.71;93.02
3598;BME280;1813;52.016;8.714;2023-02-21T05:09:39;-16261.94;;;-139.71;92.95
3598;BME280;1813;52.016;8.714;2023-02-21T05:12:12;-16261.94;;;-139.71;92.95
3598;BME280;1813;52.016;8.714;2023-02-21T05:14:50;-16261.94;;;-139.71;92.92
3598;BME280;1813;52.016;8.714;2023-02-21T05:17:24;-16261.94;;;-139.71;93.09
3598;BME280;1813;52.016;8.714;2023-02-21T05:19:59;-16261.94;;;-139.71;93.15
3598;BME280;1813;52.016;8.714;2023-02-21T05:22:33;-16261.94;;;-139.71;93.00
3598;BME280;1813;52.016;8.714;2023-02-21T05:25:14;-16261.94;;;-139.71;92.95
3598;BME280;1813;52.016;8.714;2023-02-21T05:27:50;-16261.94;;;-139.71;93.00
3598;BME280;1813;52.016;8.714;2023-02-21T05:30:28;-16261.94;;;-139.71;93.01
3598;BME280;1813;52.016;8.714;2023-02-21T05:33:02;-16261.94;;;-139.71;92.99
3598;BME280;1813;52.016;8.714;2023-02-21T05:35:35;-16261.94;;;-139.71;92.96
3598;BME280;1813;52.016;8.714;2023-02-21T05:38:09;-16261.94;;;-139.71;93.00
3598;BME280;1813;52.016;8.714;2023-02-21T05:40:43;-16261.94;;;-139.71;92.98
3598;BME280;1813;52.016;8.714;2023-02-21T05:43:16;-16261.94;;;-139.71;93.02
3598;BME280;1813;52.016;8.714;2023-02-21T05:45:53;-16261.94;;;-139.71;93.21
3598;BME280;1813;52.016;8.714;2023-02-21T05:48:27;-16261.94;;;-139.71;93.30
3598;BME280;1813;52.016;8.714;2023-02-21T05:51:01;-16261.94;;;-139.71;93.24
3598;BME280;1813;52.016;8.714;2023-02-21T05:53:35;-16261.94;;;-139.71;93.25
3598;BME280;1813;52.016;8.714;2023-02-21T05:56:09;-16261.94;;;-139.71;93.44
3598;BME280;1813;52.016;8.714;2023-02-21T05:58:43;-16261.94;;;-139.71;93.49
3598;BME280;1813;52.016;8.714;2023-02-21T06:01:19;-16261.94;;;-139.71;93.28
3598;BME280;1813;52.016;8.714;2023-02-21T06:03:53;-16261.94;;;-139.71;93.39
3598;BME280;1813;52.016;8.714;2023-02-21T06:06:27;-16261.94;;;-139.71;93.40
3598;BME280;1813;52.016;8.714;2023-02-21T06:09:01;-16261.94;;;-139.71;93.55
3598;BME280;1813;52.016;8.714;2023-02-21T06:11:36;-16261.94;;;-139.71;93.41
3598;BME280;1813;52.016;8.714;2023-02-21T06:14:14;-16261.94;;;-139.71;93.25
3598;BME280;1813;52.016;8.714;2023-02-21T06:16:51;-16261.94;;;-139.71;93.26
3598;BME280;1813;52.016;8.714;2023-02-21T06:19:25;-16261.94;;;-139.71;93.42
3598;BME280;1813;52.016;8.714;2023-02-21T06:21:59;-16261.94;;;-139.71;93.30
3598;BME280;1813;52.016;8.714;2023-02-21T06:24:33;-16261.94;;;-139.71;93.22
3598;BME280;1813;52.016;8.714;2023-02-21T06:27:06;-16261.94;;;-139.71;93.27
3598;BME280;1813;52.016;8.714;2023-02-21T06:29:40;-16261.94;;;-139.71;93.45
3598;BME280;1813;52.016;8.714;2023-02-21T06:32:16;-16261.94;;;-139.71;93.38
3598;BME280;1813;52.016;8.714;2023-02-21T06:34:50;-16261.94;;;-139.71;93.79
3598;BME280;1813;52.016;8.714;2023-02-21T06:37:24;-16261.94;;;-139.71;93.72
3598;BME280;1813;52.016;8.714;2023-02-21T06:39:58;-16261.94;;;-139.71;93.74
3598;BME280;1813;52.016;8.714;2023-02-21T06:42:34;-16261.94;;;-139.71;93.69
3598;BME280;1813;52.016;8.714;2023-02-21T06:45:09;-16261.94;;;-139.71;93.95
3598;BME280;1813;52.016;8.714;2023-02-21T06:47:45;-16261.94;;;-139.71;93.75
3598;BME280;1813;52.016;8.714;2023-02-21T06:50:19;-16261.94;;;-139.71;93.72
3598;BME280;1813;52.016;8.714;2023-02-21T06:52:53;-16261.94;;;-139.71;93.80
3598;BME280;1813;52.016;8.714;2023-02-21T06:55:26;-16261.94;;;-139.71;93.83
3598;BME280;1813;52.016;8.714;2023-02-21T06:58:00;-16261.94;;;-139.71;93.92
3598;BME280;1813;52.016;8.714;2023-02-21T07:00:34;-16261.94;;;-139.71;93.85
3598;BME280;1813;52.016;8.714;2023-02-21T07:03:11;-16261.94;;;-139.71;93.94
3598;BME280;1813;52.016;8.714;2023-02-21T07:05:46;-16261.94;;;-139.71;93.72
3598;BME280;1813;52.016;8.714;2023-02-21T07:08:19;-16261.94;;;-139.71;93.62
3598;BME280;1813;52.016;8.714;2023-02-21T07:10:55;-16261.94;;;-139.71;93.64
3598;BME280;1813;52.016;8.714;2023-02-21T07:13:29;-16261.94;;;-139.71;93.62
3598;BME280;1813;52.016;8.714;2023-02-21T07:16:05;-16261.94;;;-139.71;93.68
3598;BME280;1813;52.016;8.714;2023-02-21T07:18:43;-16261.94;;;-139.71;93.57
3598;BME280;1813;52.016;8.714;2023-02-21T07:21:20;-16261.94;;;-139.71;93.63
3598;BME280;1813;52.016;8.714;2023-02-21T07:23:55;-16261.94;;;-139.71;93.75
3598;BME280;1813;52.016;8.714;2023-02-21T07:26:29;-16261.94;;;-139.71;93.64
3598;BME280;1813;52.016;8.714;2023-02-21T07:29:04;-16261.94;;;-139.71;93.65
3598;BME280;1813;52.016;8.714;2023-02-21T07:31:37;-16261.94;;;-139.71;93.41
3598;BME280;1813;52.016;8.714;2023-02-21T07:34:14;-16261.94;;;-139.71;93.43
3598;BME280;1813;52.016;8.714;2023-02-21T07:36:49;-16261.94;;;-139.71;93.48
3598;BME280;1813;52.016;8.714;2023-02-21T07:39:23;-16261.94;;;-139.71;93.54
3598;BME280;1813;52.016;8.714;2023-02-21T07:41:57;-16261.94;;;-139.71;93.49
3598;BME280;1813;52.016;8.714;2023-02-21T07:44:33;-16261.94;;;-139.71;93.35
3598;BME280;1813;52.016;8.714;2023-02-21T07:47:07;-16261.94;;;-139.71;93.47
3598;BME280;1813;52.016;8.714;2023-02-21T07:49:44;-16261.94;;;-139.71;93.65
3598;BME280;1813;52.016;8.714;2023-02-21T07:52:19;-16261.94;;;-139.71;93.67
3598;BME280;1813;52.016;8.714;2023-02-21T07:54:52;-16261.94;;;-139.71;93.65
3598;BME280;1813;52.016;8.714;2023-02-21T07:57:26;-16261.94;;;-139.71;93.50
3598;BME280;1813;52.016;8.714;2023-02-21T08:00:00;-16261.94;;;-139.71;93.53
3598;BME280;1813;52.016;8.714;2023-02-21T08:02:46;-16261.94;;;-139.71;93.28
3598;BME280;1813;52.016;8.714;2023-02-21T08:05:24;-16261.94;;;-139.71;93.29
3598;BME280;1813;52.016;8.714;2023-02-21T08:07:57;-16261.94;;;-139.71;93.21
3598;BME280;1813;52.016;8.714;2023-02-21T08:10:31;-16261.94;;;-139.71;93.31
3598;BME280;1813;52.016;8.714;2023-02-21T08:13:05;-16261.94;;;-139.71;93.15
3598;BME280;1813;52.016;8.714;2023-02-21T08:15:39;-16261.94;;;-139.71;93.44
3598;BME280;1813;52.016;8.714;2023-02-21T08:18:16;-16261.94;;;-139.71;93.46
3598;BME280;1813;52.016;8.714;2023-02-21T08:20:56;-16261.94;;;-139.71;93.50
3598;BME280;1813;52.016;8.714;2023-02-21T08:23:32;-16261.94;;;-139.71;93.34
3598;BME280;1813;52.016;8.714;2023-02-21T08:26:07;-16261.94;;;-139.71;93.39
3598;BME280;1813;52.016;8.714;2023-02-21T08:28:40;-16261.94;;;-139.71;93.39
3598;BME280;1813;52.016;8.714;2023-02-21T08:31:26;-16261.94;;;-139.71;93.08
3598;BME280;1813;52.016;8.714;2023-02-21T08:34:01;-16261.94;;;-139.71;93.06
3598;BME280;1813;52.016;8.714;2023-02-21T08:36:38;-16261.94;;;-139.71;92.96
3598;BME280;1813;52.016;8.714;2023-02-21T08:39:13;-16261.94;;;-139.71;92.89
3598;BME280;1813;52.016;8.714;2023-02-21T08:41:46;-16261.94;;;-139.71;93.02
3598;BME280;1813;52.016;8.714;2023-02-21T08:44:22;-16261.94;;;-139.71;93.09
3598;BME280;1813;52.016;8.714;2023-02-21T08:46:56;-16261.94;;;-139.71;92.89
3598;BME280;1813;52.016;8.714;2023-02-21T08:49:30;-16261.94;;;-139.71;92.71
3598;BME280;1813;52.016;8.714;2023-02-21T08:52:07;-16261.94;;;-139.71;92.45
3598;BME280;1813;52.016;8.714;2023-02-21T08:54:41;-16261.94;;;-139.71;92.53
3598;BME280;1813;52.016;8.714;2023-02-21T08:57:15;-16261.94;;;-139.71;92.56
3598;BME280;1813;52.016;8.714;2023-02-21T08:59:49;-16261.94;;;-139.71;92.51
3598;BME280;1813;52.016;8.714;2023-02-21T09:02:24;-16261.94;;;-139.71;92.31
3598;BME280;1813;52.016;8.714;2023-02-21T09:04:58;-16261.94;;;-139.71;92.19
3598;BME280;1813;52.016;8.714;2023-02-21T09:07:35;-16261.94;;;-139.71;92.21
3598;BME280;1813;52.016;8.714;2023-02-21T09:10:10;-16261.94;;;-139.71;92.23
3598;BME280;1813;52.016;8.714;2023-02-21T09:12:45;-16261.94;;;-139.71;92.08
3598;BME280;1813;52.016;8.714;2023-02-21T09:15:20;-16261.94;;;-139.71;92.15
3598;BME280;1813;52.016;8.714;2023-02-21T09:17:54;-16261.94;;;-139.71;92.00
3598;BME280;1813;52.016;8.714;2023-02-21T09:20:28;-16261.94;;;-139.71;92.10
3598;BME280;1813;52.016;8.714;2023-02-21T09:23:05;-16261.94;;;-139.71;92.01
3598;BME280;1813;52.016;8.714;2023-02-21T09:25:38;-16261.94;;;-139.71;92.16
3598;BME280;1813;52.016;8.714;2023-02-21T09:28:12;-16261.94;;;-139.71;92.23
3598;BME280;1813;52.016;8.714;2023-02-21T09:30:46;-16261.94;;;-139.71;92.13
3598;BME280;1813;52.016;8.714;2023-02-21T09:33:21;-16261.94;;;-139.71;92.13
3598;BME280;1813;52.016;8.714;2023-02-21T09:35:55;-16261.94;;;-139.71;92.00
3598;BME280;1813;52.016;8.714;2023-02-21T09:38:32;-16261.94;;;-139.71;92.03
3598;BME280;1813;52.016;8.714;2023-02-21T09:41:06;-16261.94;;;-139.71;91.74
3598;BME280;1813;52.016;8.714;2023-02-21T09:43:43;-16261.94;;;-139.71;91.48
3598;BME280;1813;52.016;8.714;2023-02-21T09:46:20;-16261.94;;;-139.71;91.37
3598;BME280;1813;52.016;8.714;2023-02-21T09:49:00;-16261.94;;;-139.71;91.20
3598;BME280;1813;52.016;8.714;2023-02-21T09:51:36;-16261.94;;;-139.71;91.07
3598;BME280;1813;52.016;8.714;2023-02-21T09:54:18;-16261.94;;;-139.71;90.72
3598;BME280;1813;52.016;8.714;2023-02-21T09:56:56;-16261.94;;;-139.71;90.45
3598;BME280;1813;52.016;8.714;2023-02-21T09:59:33;-16261.94;;;-139.71;90.59
3598;BME280;1813;52.016;8.714;2023-02-21T10:02:23;-16261.94;;;-139.71;90.42
3598;BME280;1813;52.016;8.714;2023-02-21T10:05:14;-16261.94;;;-139.71;90.14
3598;BME280;1813;52.016;8.714;2023-02-21T10:07:58;-16261.94;;;-139.71;89.57
3598;BME280;1813;52.016;8.714;2023-02-21T10:10:41;-16261.94;;;-139.71;89.48
3598;BME280;1813;52.016;8.714;2023-02-21T10:13:25;-16261.94;;;-139.71;89.61
3598;BME280;1813;52.016;8.714;2023-02-21T10:16:07;-16261.94;;;-139.71;89.75
3598;BME280;1813;52.016;8.714;2023-02-21T10:18:48;-16261.94;;;-139.71;89.65
3598;BME280;1813;52.016;8.714;2023-02-21T10:21:29;-16261.94;;;-139.71;89.39
3598;BME280;1813;52.016;8.714;2023-02-21T10:24:12;-16261.94;;;-139.71;89.68
3598;BME280;1813;52.016;8.714;2023-02-21T10:26:55;-16261.94;;;-139.71;89.64
3598;BME280;1813;52.016;8.714;2023-02-21T10:29:38;-16261.94;;;-139.71;89.86
3598;BME280;1813;52.016;8.714;2023-02-21T10:32:13;-16261.94;;;-139.71;89.76
3598;BME280;1813;52.016;8.714;2023-02-21T10:34:48;-16261.94;;;-139.71;89.63
3598;BME280;1813;52.016;8.714;2023-02-21T10:37:33;-16261.94;;;-139.71;89.38
3598;BME280;1813;52.016;8.714;2023-02-21T10:40:28;-16261.94;;;-139.71;89.16
3598;BME280;1813;52.016;8.714;2023-02-21T10:43:12;-16261.94;;;-139.71;89.26
3598;BME280;1813;52.016;8.714;2023-02-21T10:45:52;-16261.94;;;-139.71;88.92
3598;BME280;1813;52.016;8.714;2023-02-21T10:48:34;-16261.94;;;-139.71;88.60
3598;BME280;1813;52.016;8.714;2023-02-21T10:51:09;-16261.94;;;-139.71;88.74
3598;BME280;1813;52.016;8.714;2023-02-21T10:53:45;-16261.94;;;-139.71;88.65
3598;BME280;1813;52.016;8.714;2023-02-21T10:56:24;-16261.94;;;-139.71;88.52
3598;BME280;1813;52.016;8.714;2023-02-21T10:59:04;-16261.94;;;-139.71;88.76
3598;BME280;1813;52.016;8.714;2023-02-21T11:01:41;-16261.94;;;-139.71;88.86
3598;BME280;1813;52.016;8.714;2023-02-21T11:04:25;-16261.94;;;-139.71;88.64
3598;BME280;1813;52.016;8.714;2023-02-21T11:07:03;-16261.94;;;-139.71;88.80
3598;BME280;1813;52.016;8.714;2023-02-21T11:09:39;-16261.94;;;-139.71;88.83
3598;BME280;1813;52.016;8.714;2023-02-21T11:12:22;-16261.94;;;-139.71;88.71
3598;BME280;1813;52.016;8.714;2023-02-21T11:15:15;-16261.94;;;-139.71;88.71
3598;BME280;1813;52.016;8.714;2023-02-21T11:18:03;-16261.94;;;-139.71;88.96
3598;BME280;1813;52.016;8.714;2023-02-21T11:20:37;-16261.94;;;-139.71;89.10
3598;BME280;1813;52.016;8.714;2023-02-21T11:23:26;-16261.94;;;-139.71;89.24
3598;BME280;1813;52.016;8.714;2023-02-21T11:26:06;-16261.94;;;-139.71;89.06
3598;BME280;1813;52.016;8.714;2023-02-21T11:28:41;-16261.94;;;-139.71;89.13
3598;BME280;1813;52.016;8.714;2023-02-21T11:31:25;-16261.94;;;-139.71;88.81
3598;BME280;1813;52.016;8.714;2023-02-21T11:34:02;-16261.94;;;-139.71;89.13
3598;BME280;1813;52.016;8.714;2023-02-21T11:36:39;-16261.94;;;-139.71;88.92
3598;BME280;1813;52.016;8.714;2023-02-21T11:39:15;-16261.94;;;-139.71;88.62
3598;BME280;1813;52.016;8.714;2023-02-21T11:41:52;-16261.94;;;-139.71;88.73
3598;BME280;1813;52.016;8.714;2023-02-21T11:44:36;-16261.94;;;-139.71;88.62
3598;BME280;1813;52.016;8.714;2023-02-21T11:47:20;-16261.94;;;-139.71;88.63
3598;BME280;1813;52.016;8.714;2023-02-21T11:50:03;-16261.94;;;-139.71;88.75
3598;BME280;1813;52.016;8.714;2023-02-21T11:52:47;-16261.94;;;-139.71;88.45
3598;BME280;1813;52.016;8.714;2023-02-21T11:55:25;-16261.94;;;-139.71;88.80
3598;BME280;1813;52.016;8.714;2023-02-21T11:58:14;-16261.94;;;-139.71;88.50
3598;BME280;1813;52.016;8.714;2023-02-21T12:00:56;-16261.94;;;-139.71;88.46
3598;BME280;1813;52.016;8.714;2023-02-21T12:03:51;-16261.94;;;-139.71;88.48
3598;BME280;1813;52.016;8.714;2023-02-21T12:06:36;-16261.94;;;-139.71;88.34
3598;BME280;1813;52.016;8.714;2023-02-21T12:09:20;-16261.94;;;-139.71;88.33
3598;BME280;1813;52.016;8.714;2023-02-21T12:12:25;-16261.94;;;-139.71;88.48
3598;BME280;1813;52.016;8.714;2023-02-21T12:15:20;-16261.94;;;-139.71;88.68
3598;BME280;1813;52.016;8.714;2023-02-21T12:18:11;-16261.94;;;-139.71;88.75
3598;BME280;1813;52.016;8.714;2023-02-21T12:21:08;-16261.94;;;-139.71;88.76
3598;BME280;1813;52.016;8.714;2023-02-21T12:24:01;-16261.94;;;-139.71;88.95
3598;BME280;1813;52.016;8.714;2023-02-21T12:26:53;-16261.94;;;-139.71;89.03
3598;BME280;1813;52.016;8.714;2023-02-21T12:29:50;-16261.94;;;-139.71;89.04
3598;BME280;1813;52.016;8.714;2023-02-21T12:32:43;-16261.94;;;-139.71;89.10
3598;BME280;1813;52.016;8.714;2023-02-21T12:38:44;-16261.94;;;-139.71;89.20
3598;BME280;1813;52.016;8.714;2023-02-21T12:41:37;-16261.94;;;-139.71;88.81
3598;BME280;1813;52.016;8.714;2023-02-21T12:44:16;-16261.94;;;-139.71;88.97
3598;BME280;1813;52.016;8.714;2023-02-21T12:46:56;-16261.94;;;-139.71;88.92
3598;BME280;1813;52.016;8.714;2023-02-21T12:49:38;-16261.94;;;-139.71;88.75
3598;BME280;1813;52.016;8.714;2023-02-21T12:52:19;-16261.94;;;-139.71;89.05
3598;BME280;1813;52.016;8.714;2023-02-21T12:55:01;-16261.94;;;-139.71;89.00
3598;BME280;1813;52.016;8.714;2023-02-21T12:57:46;-16261.94;;;-139.71;88.94
3598;BME280;1813;52.016;8.714;2023-02-21T13:00:25;-16261.94;;;-139.71;88.85
3598;BME280;1813;52.016;8.714;2023-02-21T13:03:04;-16261.94;;;-139.71;88.74
3598;BME280;1813;52.016;8.714;2023-02-21T13:05:50;-16261.94;;;-139.71;88.86
3598;BME280;1813;52.016;8.714;2023-02-21T13:08:29;-16261.94;;;-139.71;88.77
3598;BME280;1813;52.016;8.714;2023-02-21T13:11:11;-16261.94;;;-139.71;88.87
3598;BME280;1813;52.016;8.714;2023-02-21T13:13:48;-16261.94;;;-139.71;89.05
3598;BME280;1813;52.016;8.714;2023-02-21T13:16:22;-16261.94;;;-139.71;88.93
3598;BME280;1813;52.016;8.714;2023-02-21T13:18:59;-16261.94;;;-139.71;89.18
3598;BME280;1813;52.016;8.714;2023-02-21T13:21:48;-16261.94;;;-139.71;88.76
3598;BME280;1813;52.016;8.714;2023-02-21T13:24:40;-16261.94;;;-139.71;88.88
3598;BME280;1813;52.016;8.714;2023-02-21T13:27:34;-16261.94;;;-139.71;88.98
3598;BME280;1813;52.016;8.714;2023-02-21T13:30:19;-16261.94;;;-139.71;88.86
3598;BME280;1813;52.016;8.714;2023-02-21T13:32:55;-16261.94;;;-139.71;88.86
3598;BME280;1813;52.016;8.714;2023-02-21T13:35:34;-16261.94;;;-139.71;89.04
3598;BME280;1813;52.016;8.714;2023-02-21T13:38:10;-16261.94;;;-139.71;88.92
3598;BME280;1813;52.016;8.714;2023-02-21T13:40:47;-16261.94;;;-139.71;88.81
3598;BME280;1813;52.016;8.714;2023-02-21T13:43:28;-16261.94;;;-139.71;88.54
3598;BME280;1813;52.016;8.714;2023-02-21T13:49:37;-16261.94;;;-139.71;88.16
3598;BME280;1813;52.016;8.714;2023-02-21T13:52:34;-16261.94;;;-139.71;88.14
3598;BME280;1813;52.016;8.714;2023-02-21T13:55:22;-16261.94;;;-139.71;88.20
3598;BME280;1813;52.016;8.714;2023-02-21T14:07:15;-16261.94;;;-139.71;88.03
3598;BME280;1813;52.016;8.714;2023-02-21T14:09:55;-16261.94;;;-139.71;87.97
3598;BME280;1813;52.016;8.714;2023-02-21T14:12:30;-16261.94;;;-139.71;88.03
3598;BME280;1813;52.016;8.714;2023-02-21T14:15:06;-16261.94;;;-139.71;87.88
3598;BME280;1813;52.016;8.714;2023-02-21T14:17:41;-16261.94;;;-139.71;87.65
3598;BME280;1813;52.016;8.714;2023-02-21T14:20:16;-16261.94;;;-139.71;87.88
3598;BME280;1813;52.016;8.714;2023-02-21T14:22:56;-16261.94;;;-139.71;87.74